Time;durP1;ratioP1;P1;durP2;ratioP2;P2;SDS_P1;SDS_P2;PMS_P1;PMS_P2;Temp;Humidity;BMP_temperature;BMP_pressure;BME280_temperature;BME280_humidity;BME280_pressure;Samples;Min_cycle;Max_cycle;Signal;HPM_P1;HPM_P2
2021/08/15 00:00:11;;;;;;;10.93;9.75;;;17.20;99.90;;;;;;5032604;28;20453;-69
2021/08/15 00:02:38;;;;;;;10.55;9.45;;;17.10;99.90;;;;;;5052185;28;20041;-70
2021/08/15 00:05:07;;;;;;;10.77;9.73;;;17.10;99.90;;;;;;5052787;28;20045;-69
2021/08/15 00:07:35;;;;;;;9.75;8.13;;;17.00;99.90;;;;;;5049297;28;20329;-70
2021/08/15 00:10:02;;;;;;;9.45;8.45;;;17.00;99.90;;;;;;5051977;28;20044;-70
2021/08/15 00:12:28;;;;;;;9.43;7.72;;;17.10;99.90;;;;;;5052372;28;20049;-69
2021/08/15 00:14:55;;;;;;;8.93;7.65;;;17.10;99.90;;;;;;5035861;28;20100;-70
2021/08/15 00:17:21;;;;;;;11.40;7.63;;;17.10;99.90;;;;;;5032852;28;20076;-69
2021/08/15 00:19:48;;;;;;;9.07;6.80;;;17.10;99.90;;;;;;5046009;28;20045;-70
2021/08/15 00:22:15;;;;;;;11.18;5.97;;;17.00;99.90;;;;;;5032679;28;20049;-70
2021/08/15 00:24:42;;;;;;;9.85;8.27;;;17.00;99.90;;;;;;5033737;28;20050;-70
2021/08/15 00:27:09;;;;;;;10.63;7.90;;;17.00;99.90;;;;;;5032623;28;20095;-70
2021/08/15 00:29:36;;;;;;;7.63;6.30;;;17.00;99.90;;;;;;5031747;28;20046;-70
2021/08/15 00:32:04;;;;;;;9.75;7.18;;;17.00;99.90;;;;;;5034481;28;20050;-70
2021/08/15 00:34:32;;;;;;;8.00;6.72;;;17.00;99.90;;;;;;5052288;28;20107;-70
2021/08/15 00:36:58;;;;;;;7.57;6.03;;;17.00;99.90;;;;;;5052439;28;20059;-70
2021/08/15 00:39:25;;;;;;;7.75;6.28;;;16.90;99.90;;;;;;5052035;28;20049;-69
2021/08/15 00:41:53;;;;;;;10.05;6.75;;;16.90;99.90;;;;;;5052355;28;20053;-69
2021/08/15 00:44:20;;;;;;;13.27;6.28;;;16.90;99.90;;;;;;5051839;28;20102;-69
2021/08/15 00:46:49;;;;;;;11.50;6.40;;;16.90;99.90;;;;;;5051894;28;20536;-69
2021/08/15 00:49:15;;;;;;;9.68;6.25;;;16.80;99.90;;;;;;5049551;28;20045;-70
2021/08/15 00:51:42;;;;;;;7.25;6.25;;;16.80;99.90;;;;;;5049718;28;20102;-69
2021/08/15 00:54:08;;;;;;;6.90;6.03;;;16.80;99.90;;;;;;5032113;28;20494;-69
2021/08/15 00:56:35;;;;;;;9.10;5.72;;;16.80;99.90;;;;;;5048092;28;20497;-70
2021/08/15 00:59:05;;;;;;;6.43;5.30;;;16.90;99.90;;;;;;5050984;28;20182;-70
2021/08/15 01:01:33;;;;;;;6.55;5.57;;;16.90;99.90;;;;;;5051262;28;20041;-70
2021/08/15 01:04:03;;;;;;;9.98;5.63;;;16.80;99.90;;;;;;5051897;28;20045;-68
2021/08/15 01:06:31;;;;;;;7.65;5.65;;;16.70;99.90;;;;;;5051527;28;20135;-69
2021/08/15 01:08:57;;;;;;;5.72;4.57;;;16.70;99.90;;;;;;5043235;28;20050;-69
2021/08/15 01:11:24;;;;;;;6.55;5.28;;;16.70;99.90;;;;;;5031755;28;20041;-68
2021/08/15 01:13:51;;;;;;;5.22;4.72;;;16.60;99.90;;;;;;5031933;28;20046;-69
2021/08/15 01:16:19;;;;;;;7.93;5.75;;;16.70;99.90;;;;;;5031691;28;20482;-69
2021/08/15 01:18:45;;;;;;;8.15;5.40;;;16.70;99.90;;;;;;5031347;28;20049;-68
2021/08/15 01:21:13;;;;;;;10.73;5.85;;;16.70;99.90;;;;;;5033574;28;20097;-69
2021/08/15 01:23:44;;;;;;;8.88;6.15;;;16.70;99.90;;;;;;5041753;28;20037;-69
2021/08/15 01:26:13;;;;;;;10.20;5.65;;;16.60;99.90;;;;;;5051629;28;20102;-70
2021/08/15 01:28:41;;;;;;;6.72;5.85;;;16.50;99.90;;;;;;5039987;28;20563;-69
2021/08/15 01:31:09;;;;;;;12.35;5.32;;;16.40;99.90;;;;;;5031749;28;20088;-69
2021/08/15 01:33:39;;;;;;;8.50;5.55;;;16.40;99.90;;;;;;5045434;28;20048;-69
2021/08/15 01:36:06;;;;;;;8.38;6.03;;;16.40;99.90;;;;;;5051011;28;20051;-70
2021/08/15 01:38:35;;;;;;;7.38;4.68;;;16.30;99.90;;;;;;5045370;28;20045;-69
2021/08/15 01:41:02;;;;;;;8.15;5.65;;;16.20;99.90;;;;;;5051286;28;20049;-69
2021/08/15 01:43:30;;;;;;;8.77;5.53;;;16.10;99.90;;;;;;5051645;28;20044;-70
2021/08/15 01:45:58;;;;;;;6.13;4.93;;;16.10;99.90;;;;;;5050224;28;20057;-69
2021/08/15 01:48:25;;;;;;;6.28;4.78;;;16.10;99.90;;;;;;5041030;28;20045;-69
2021/08/15 01:50:52;;;;;;;9.65;5.22;;;16.00;99.90;;;;;;5031260;28;20572;-69
2021/08/15 01:53:20;;;;;;;6.68;4.65;;;16.00;99.90;;;;;;5044196;28;20106;-69
2021/08/15 01:55:47;;;;;;;10.27;5.32;;;16.00;99.90;;;;;;5051173;28;20559;-70
2021/08/15 01:58:15;;;;;;;5.25;4.75;;;16.00;99.90;;;;;;5049279;28;20045;-69
2021/08/15 02:00:44;;;;;;;8.25;5.47;;;15.90;99.90;;;;;;5050412;28;20041;-69
2021/08/15 02:03:12;;;;;;;7.88;5.60;;;15.90;99.90;;;;;;5045413;28;20064;-68
2021/08/15 02:05:41;;;;;;;6.88;6.15;;;15.80;99.90;;;;;;5050080;28;20049;-69
2021/08/15 02:08:07;;;;;;;6.75;6.05;;;15.80;99.90;;;;;;5031415;28;20041;-69
2021/08/15 02:10:34;;;;;;;9.82;5.68;;;15.70;99.90;;;;;;5047162;28;20045;-69
2021/08/15 02:13:02;;;;;;;9.32;5.50;;;15.70;99.90;;;;;;5052118;28;20456;-70
2021/08/15 02:15:31;;;;;;;7.00;5.60;;;15.70;99.90;;;;;;5054680;28;20382;-69
2021/08/15 02:17:58;;;;;;;8.43;5.55;;;15.60;99.90;;;;;;5054156;28;20057;-69
2021/08/15 02:20:26;;;;;;;8.88;5.75;;;15.60;99.90;;;;;;5049680;28;20452;-69
2021/08/15 02:22:53;;;;;;;28.67;15.13;;;15.60;99.90;;;;;;5055217;28;20049;-69
2021/08/15 02:25:21;;;;;;;18.13;12.40;;;15.50;99.90;;;;;;5050844;28;20045;-69
2021/08/15 02:27:49;;;;;;;22.00;14.38;;;15.40;99.90;;;;;;5051205;28;20119;-69
2021/08/15 02:30:17;;;;;;;8.35;7.32;;;15.40;99.90;;;;;;5034245;28;20100;-69
2021/08/15 02:32:44;;;;;;;6.57;5.60;;;15.30;99.90;;;;;;5048577;28;20104;-69
2021/08/15 02:35:12;;;;;;;6.85;6.15;;;15.30;99.90;;;;;;5043857;28;20050;-69
2021/08/15 02:37:42;;;;;;;8.63;6.25;;;15.30;99.90;;;;;;5035012;28;20452;-69
2021/08/15 02:40:10;;;;;;;7.43;5.90;;;15.20;99.90;;;;;;5034113;28;20045;-69
2021/08/15 02:42:39;;;;;;;5.60;4.47;;;15.20;99.90;;;;;;5034531;28;20103;-69
2021/08/15 02:45:07;;;;;;;9.73;6.15;;;15.10;99.90;;;;;;5034399;28;20099;-69
2021/08/15 02:47:34;;;;;;;12.27;8.80;;;15.00;99.90;;;;;;5048631;28;20094;-69
2021/08/15 02:50:01;;;;;;;16.67;10.90;;;15.00;99.90;;;;;;5053626;28;20192;-69
2021/08/15 02:52:28;;;;;;;13.65;10.75;;;15.00;99.90;;;;;;5054153;28;20049;-69
2021/08/15 02:54:56;;;;;;;11.98;7.40;;;14.90;99.90;;;;;;5054409;28;20136;-70
2021/08/15 02:57:23;;;;;;;8.82;7.68;;;14.90;99.90;;;;;;5053729;28;20053;-70
2021/08/15 02:59:50;;;;;;;8.18;6.30;;;14.80;99.90;;;;;;5052341;28;20056;-70
2021/08/15 03:02:18;;;;;;;11.10;7.10;;;14.70;99.90;;;;;;5053525;28;20053;-69
2021/08/15 03:04:45;;;;;;;7.78;7.03;;;14.60;99.90;;;;;;5054084;28;20555;-69
2021/08/15 03:07:12;;;;;;;7.50;6.80;;;14.70;99.90;;;;;;5053548;28;20045;-70
2021/08/15 03:09:39;;;;;;;9.25;6.78;;;14.70;99.90;;;;;;5043425;28;20045;-70
2021/08/15 03:12:07;;;;;;;11.82;8.23;;;14.80;99.90;;;;;;5033949;28;20045;-69
2021/08/15 03:14:34;;;;;;;7.78;6.95;;;14.60;99.90;;;;;;5034389;28;20096;-69
2021/08/15 03:17:00;;;;;;;9.05;7.00;;;14.70;99.90;;;;;;5034928;28;20045;-69
2021/08/15 03:19:27;;;;;;;9.15;7.13;;;14.50;99.90;;;;;;5045757;28;20049;-71
2021/08/15 03:21:54;;;;;;;8.80;7.53;;;14.50;99.90;;;;;;5054131;28;20049;-70
2021/08/15 03:24:20;;;;;;;9.20;7.80;;;14.40;99.90;;;;;;5053054;28;20469;-70
2021/08/15 03:26:47;;;;;;;8.70;7.50;;;14.50;99.90;;;;;;5053381;28;20099;-69
2021/08/15 03:29:16;;;;;;;9.95;7.15;;;14.40;99.90;;;;;;5052847;28;20553;-69
2021/08/15 03:31:44;;;;;;;9.30;6.70;;;14.30;99.90;;;;;;5053624;28;20493;-68
2021/08/15 03:34:11;;;;;;;12.93;9.00;;;14.40;99.90;;;;;;5053509;28;20123;-69
2021/08/15 03:36:38;;;;;;;12.75;8.13;;;14.40;99.90;;;;;;5053576;28;20485;-69
2021/08/15 03:39:05;;;;;;;12.43;8.02;;;14.30;99.90;;;;;;5051902;28;20075;-69
2021/08/15 03:41:32;;;;;;;8.38;7.57;;;14.30;99.90;;;;;;5053541;28;20067;-70
2021/08/15 03:43:59;;;;;;;10.60;7.53;;;14.20;99.90;;;;;;5053573;28;20040;-71
2021/08/15 03:46:27;;;;;;;11.00;7.97;;;14.00;99.90;;;;;;5053509;28;20044;-71
2021/08/15 03:48:53;;;;;;;10.13;9.10;;;14.00;99.90;;;;;;5052742;28;20559;-71
2021/08/15 03:51:20;;;;;;;8.43;7.22;;;14.00;99.90;;;;;;5060608;28;20044;-70
2021/08/15 03:53:47;;;;;;;11.70;6.95;;;14.10;99.90;;;;;;5064528;28;20460;-69
2021/08/15 03:56:13;;;;;;;8.82;7.95;;;14.20;99.90;;;;;;5053345;28;20067;-69
2021/08/15 03:58:40;;;;;;;9.43;7.43;;;14.30;99.90;;;;;;5052682;28;20053;-70
2021/08/15 04:01:06;;;;;;;7.95;6.00;;;14.20;99.90;;;;;;5050958;28;20095;-70
2021/08/15 04:03:34;;;;;;;8.50;7.40;;;14.20;99.90;;;;;;5042543;28;20576;-69
2021/08/15 04:06:07;;;;;;;11.63;6.85;;;14.10;99.90;;;;;;5042622;28;20044;-71
2021/08/15 04:08:34;;;;;;;9.40;7.47;;;14.10;99.90;;;;;;5052326;28;20080;-69
2021/08/15 04:11:01;;;;;;;9.27;7.78;;;14.10;99.90;;;;;;5051409;28;20041;-70
2021/08/15 04:13:27;;;;;;;8.25;7.45;;;14.00;99.90;;;;;;5052900;28;20041;-69
2021/08/15 04:15:54;;;;;;;9.48;8.38;;;13.90;99.90;;;;;;5050490;28;20114;-69
2021/08/15 04:18:21;;;;;;;10.85;7.97;;;13.80;99.90;;;;;;5040863;28;20452;-69
2021/08/15 04:20:49;;;;;;;11.32;8.60;;;13.70;99.90;;;;;;5051834;28;20045;-70
2021/08/15 04:23:15;;;;;;;11.27;8.48;;;13.70;99.90;;;;;;5052896;28;20091;-69
2021/08/15 04:25:42;;;;;;;8.30;7.30;;;13.90;99.90;;;;;;5052268;28;20555;-69
2021/08/15 04:28:09;;;;;;;9.75;7.40;;;14.00;99.90;;;;;;5052610;28;20041;-69
2021/08/15 04:30:35;;;;;;;10.85;7.45;;;14.20;99.90;;;;;;5051212;28;20498;-69
2021/08/15 04:33:02;;;;;;;10.73;7.75;;;14.30;99.90;;;;;;5034606;28;20050;-69
2021/08/15 04:35:29;;;;;;;9.35;8.27;;;14.40;99.90;;;;;;5051380;28;20099;-68
2021/08/15 04:37:57;;;;;;;7.43;6.72;;;14.50;99.90;;;;;;5052571;28;20059;-70
2021/08/15 04:40:24;;;;;;;9.98;7.00;;;14.60;99.90;;;;;;5051450;28;20490;-69
2021/08/15 04:42:51;;;;;;;11.70;7.88;;;14.70;99.90;;;;;;5051563;28;20045;-69
2021/08/15 04:45:17;;;;;;;16.25;12.50;;;14.70;99.90;;;;;;5048472;28;20050;-69
2021/08/15 04:47:44;;;;;;;14.23;10.50;;;14.80;99.90;;;;;;5032292;28;20465;-69
2021/08/15 04:50:10;;;;;;;20.38;12.05;;;14.90;99.90;;;;;;5031589;28;20095;-70
2021/08/15 04:52:37;;;;;;;7.75;6.75;;;15.00;99.90;;;;;;5032477;28;20476;-71
2021/08/15 04:55:06;;;;;;;10.90;8.15;;;15.00;99.90;;;;;;5035863;28;20091;-70
2021/08/15 04:57:33;;;;;;;14.43;8.70;;;14.90;99.90;;;;;;5051246;28;20452;-70
2021/08/15 04:59:59;;;;;;;18.20;13.32;;;15.00;99.90;;;;;;5051475;28;20041;-70
2021/08/15 05:02:26;;;;;;;15.35;8.90;;;15.20;99.90;;;;;;5037064;28;20068;-69
2021/08/15 05:04:53;;;;;;;26.50;17.90;;;15.20;99.90;;;;;;5032188;28;20068;-69
2021/08/15 05:07:19;;;;;;;11.45;8.15;;;15.30;99.90;;;;;;5033350;28;20113;-69
2021/08/15 05:09:46;;;;;;;9.73;7.80;;;15.40;99.90;;;;;;5041309;28;20413;-69
2021/08/15 05:12:14;;;;;;;9.65;8.15;;;15.60;99.90;;;;;;5047454;28;20048;-69
2021/08/15 05:14:40;;;;;;;18.35;11.63;;;15.60;99.90;;;;;;5052145;28;20126;-69
2021/08/15 05:17:07;;;;;;;17.55;11.25;;;15.70;99.90;;;;;;5051330;28;20045;-70
2021/08/15 05:19:34;;;;;;;26.50;15.93;;;15.70;99.90;;;;;;5051083;28;20413;-68
2021/08/15 05:22:00;;;;;;;17.13;9.25;;;15.90;99.90;;;;;;5046305;28;20103;-68
2021/08/15 05:24:27;;;;;;;10.27;8.40;;;16.10;99.90;;;;;;5042613;28;20305;-69
2021/08/15 05:26:53;;;;;;;8.90;6.43;;;16.20;99.90;;;;;;5041404;28;20095;-70
2021/08/15 05:29:21;;;;;;;10.48;7.25;;;16.30;99.90;;;;;;5037411;28;20413;-70
2021/08/15 05:31:48;;;;;;;14.23;10.15;;;16.50;99.90;;;;;;5051213;28;20099;-70
2021/08/15 05:34:15;;;;;;;13.45;9.00;;;16.60;99.90;;;;;;5051686;28;20120;-69
2021/08/15 05:36:41;;;;;;;8.95;6.35;;;16.80;99.90;;;;;;5051600;28;20095;-69
2021/08/15 05:39:08;;;;;;;15.15;10.05;;;16.90;99.90;;;;;;5049950;28;20053;-69
2021/08/15 05:41:34;;;;;;;12.20;6.75;;;17.10;99.90;;;;;;5051138;28;20489;-69
2021/08/15 05:44:01;;;;;;;7.50;5.53;;;17.20;99.90;;;;;;5051552;28;20103;-69
2021/08/15 05:46:29;;;;;;;6.13;4.70;;;17.20;99.90;;;;;;5049286;28;20057;-69
2021/08/15 05:48:55;;;;;;;8.90;6.90;;;17.40;99.90;;;;;;5035581;28;20111;-69
2021/08/15 05:51:22;;;;;;;7.43;5.38;;;17.40;99.90;;;;;;5035667;28;20045;-68
2021/08/15 05:53:49;;;;;;;13.93;10.10;;;17.50;99.90;;;;;;5045891;28;20163;-69
2021/08/15 05:56:15;;;;;;;5.75;5.00;;;17.80;99.90;;;;;;5050494;28;20494;-68
2021/08/15 05:58:42;;;;;;;7.50;4.70;;;18.10;99.90;;;;;;5048951;28;20416;-68
2021/08/15 06:01:09;;;;;;;5.82;4.22;;;18.40;99.90;;;;;;5055014;28;20094;-69
2021/08/15 06:03:37;;;;;;;5.63;4.00;;;18.40;99.90;;;;;;5054553;28;20094;-69
2021/08/15 06:06:04;;;;;;;9.93;5.13;;;18.60;99.90;;;;;;5055043;28;20068;-70
2021/08/15 06:08:31;;;;;;;6.13;4.50;;;18.80;99.90;;;;;;5054611;28;20081;-70
2021/08/15 06:10:57;;;;;;;5.70;4.03;;;19.20;99.90;;;;;;5051931;28;20053;-68
2021/08/15 06:13:24;;;;;;;9.15;4.90;;;19.40;99.90;;;;;;5052868;28;20083;-69
2021/08/15 06:15:51;;;;;;;11.38;4.88;;;19.70;99.90;;;;;;5035375;28;20514;-68
2021/08/15 06:18:18;;;;;;;10.43;6.63;;;20.00;99.90;;;;;;5041698;28;20048;-68
2021/08/15 06:20:46;;;;;;;6.57;4.30;;;20.20;99.90;;;;;;5034587;28;20049;-69
2021/08/15 06:23:13;;;;;;;10.13;6.68;;;20.40;99.90;;;;;;5035046;28;20041;-69
2021/08/15 06:25:40;;;;;;;8.55;4.60;;;20.70;99.90;;;;;;5039338;28;20049;-68
2021/08/15 06:28:06;;;;;;;8.25;5.07;;;20.80;99.90;;;;;;5054478;28;20056;-69
2021/08/15 06:30:33;;;;;;;7.50;3.70;;;20.80;99.90;;;;;;5053481;28;20451;-69
2021/08/15 06:33:01;;;;;;;5.88;3.95;;;20.60;99.90;;;;;;5054501;28;20102;-70
2021/08/15 06:35:28;;;;;;;9.43;5.18;;;20.40;99.90;;;;;;5054769;28;20494;-70
2021/08/15 06:37:56;;;;;;;5.07;3.88;;;20.40;99.90;;;;;;5036246;28;20053;-69
2021/08/15 06:40:26;;;;;;;5.15;3.38;;;20.50;99.90;;;;;;5033934;28;20057;-69
2021/08/15 06:42:53;;;;;;;6.43;3.78;;;20.90;99.90;;;;;;5034948;28;20049;-70
2021/08/15 06:45:20;;;;;;;6.38;4.75;;;21.10;99.90;;;;;;5042010;28;20436;-69
2021/08/15 06:47:46;;;;;;;6.03;3.28;;;21.50;99.90;;;;;;5053962;28;20095;-69
2021/08/15 06:50:14;;;;;;;5.75;3.33;;;21.60;99.90;;;;;;5053316;28;20045;-68
2021/08/15 06:52:41;;;;;;;4.22;3.17;;;21.80;99.90;;;;;;5054330;28;20044;-69
2021/08/15 06:55:10;;;;;;;5.82;3.00;;;21.90;99.90;;;;;;5036364;28;20107;-69
2021/08/15 06:57:37;;;;;;;9.65;5.43;;;21.90;99.90;;;;;;5034445;28;20045;-70
2021/08/15 07:00:05;;;;;;;5.80;3.00;;;22.20;99.90;;;;;;5044694;28;20075;-70
2021/08/15 07:02:37;;;;;;;7.65;4.55;;;22.30;99.90;;;;;;5054129;28;20044;-70
2021/08/15 07:05:04;;;;;;;7.28;3.33;;;22.30;99.90;;;;;;5054283;28;20059;-69
2021/08/15 07:07:31;;;;;;;6.80;4.55;;;22.40;99.90;;;;;;5053596;28;20041;-69
2021/08/15 07:09:57;;;;;;;5.10;2.85;;;22.60;99.90;;;;;;5043054;28;20067;-69
2021/08/15 07:12:25;;;;;;;5.95;3.70;;;22.20;99.90;;;;;;5048368;28;20044;-69
2021/08/15 07:14:52;;;;;;;6.30;3.80;;;22.30;99.90;;;;;;5054087;28;20045;-69
2021/08/15 07:17:18;;;;;;;8.45;3.60;;;22.30;99.90;;;;;;5053242;28;20234;-69
2021/08/15 07:19:45;;;;;;;8.48;3.25;;;22.20;99.90;;;;;;5053016;28;20106;-72
2021/08/15 07:22:12;;;;;;;5.47;3.58;;;22.40;99.90;;;;;;5052752;28;20049;-69
2021/08/15 07:24:38;;;;;;;7.53;5.05;;;22.20;99.90;;;;;;5053902;28;20049;-70
2021/08/15 07:27:05;;;;;;;6.72;3.47;;;22.60;99.90;;;;;;5053429;28;20045;-69
2021/08/15 07:29:33;;;;;;;6.75;3.67;;;22.30;99.90;;;;;;5052987;28;20103;-69
2021/08/15 07:32:00;;;;;;;7.90;3.92;;;22.10;99.90;;;;;;5042548;28;20045;-69
2021/08/15 07:34:26;;;;;;;5.43;3.72;;;22.30;99.90;;;;;;5033472;28;20045;-70
2021/08/15 07:36:53;;;;;;;4.22;3.38;;;23.10;99.90;;;;;;5041055;28;20045;-69
2021/08/15 07:39:19;;;;;;;6.75;3.88;;;23.40;99.90;;;;;;5048170;28;20095;-68
2021/08/15 07:41:46;;;;;;;6.90;3.20;;;23.30;99.90;;;;;;5053136;28;20406;-68
2021/08/15 07:44:13;;;;;;;5.03;4.00;;;23.30;99.90;;;;;;5056064;28;20037;-73
2021/08/15 07:46:40;;;;;;;4.68;2.55;;;23.00;99.90;;;;;;5050790;28;20072;-72
2021/08/15 07:49:07;;;;;;;8.88;4.65;;;22.80;99.90;;;;;;5053203;28;20102;-73
2021/08/15 07:51:34;;;;;;;22.20;11.63;;;23.00;99.90;;;;;;5053181;28;20076;-76
2021/08/15 07:54:00;;;;;;;7.07;3.63;;;23.70;99.90;;;;;;5053917;28;20045;-77
2021/08/15 07:56:27;;;;;;;7.47;4.82;;;24.00;99.90;;;;;;5052035;28;20049;-75
2021/08/15 07:58:54;;;;;;;6.78;4.25;;;24.50;99.90;;;;;;5052620;28;20443;-76
2021/08/15 08:01:21;;;;;;;6.85;3.38;;;24.90;99.90;;;;;;5048160;28;20046;-78
2021/08/15 08:03:49;;;;;;;6.68;3.40;;;25.40;98.30;;;;;;5033143;28;20041;-73
2021/08/15 08:06:16;;;;;;;8.02;4.20;;;25.70;97.30;;;;;;5049959;28;20041;-74
2021/08/15 08:08:42;;;;;;;7.03;3.83;;;26.30;95.50;;;;;;5053041;28;20464;-73
2021/08/15 08:11:09;;;;;;;18.98;8.02;;;26.60;92.60;;;;;;5036120;28;20111;-74
2021/08/15 08:13:36;;;;;;;6.15;2.60;;;26.00;92.80;;;;;;5033335;28;20068;-72
2021/08/15 08:16:03;;;;;;;5.30;2.83;;;25.90;91.40;;;;;;5048456;28;20107;-76
2021/08/15 08:18:30;;;;;;;4.10;2.55;;;25.60;92.10;;;;;;5051194;28;20048;-75
2021/08/15 08:20:58;;;;;;;6.35;3.33;;;25.80;92.30;;;;;;5051553;28;20049;-71
2021/08/15 08:23:25;;;;;;;7.78;3.30;;;26.00;91.80;;;;;;5052687;28;20045;-75
2021/08/15 08:25:52;;;;;;;7.28;3.70;;;26.40;90.60;;;;;;5053027;28;20049;-76
2021/08/15 08:28:18;;;;;;;6.85;3.92;;;26.90;89.60;;;;;;5041632;28;20045;-74
2021/08/15 08:30:45;;;;;;;6.15;2.75;;;27.50;86.90;;;;;;5046044;28;20106;-74
2021/08/15 08:33:12;;;;;;;3.85;2.85;;;27.90;84.00;;;;;;5052925;28;20049;-72
2021/08/15 08:35:38;;;;;;;4.75;2.28;;;27.70;79.00;;;;;;5052760;28;20106;-72
2021/08/15 08:38:06;;;;;;;7.47;3.75;;;27.40;81.50;;;;;;5052527;28;20118;-74
2021/08/15 08:40:33;;;;;;;4.90;3.15;;;28.00;81.80;;;;;;5051212;28;20493;-70
2021/08/15 08:43:00;;;;;;;6.50;3.20;;;27.80;80.20;;;;;;5051885;28;20045;-70
2021/08/15 08:45:28;;;;;;;2.92;1.83;;;28.30;80.30;;;;;;5039065;28;20096;-69
2021/08/15 08:47:56;;;;;;;5.45;3.05;;;27.90;76.70;;;;;;5032360;28;20053;-70
2021/08/15 08:50:24;;;;;;;4.55;2.63;;;28.40;75.30;;;;;;5031612;28;20045;-69
2021/08/15 08:52:50;;;;;;;3.38;2.00;;;28.30;74.70;;;;;;5048945;28;20045;-71
2021/08/15 08:55:19;;;;;;;4.70;3.40;;;28.10;74.00;;;;;;5048776;28;20037;-71
2021/08/15 08:57:46;;;;;;;5.30;2.45;;;28.20;73.60;;;;;;5032087;28;20050;-70
2021/08/15 09:00:13;;;;;;;5.57;2.38;;;28.00;72.10;;;;;;5053873;28;20047;-70
2021/08/15 09:02:40;;;;;;;5.35;2.95;;;28.20;71.00;;;;;;5054323;28;20095;-70
2021/08/15 09:05:08;;;;;;;4.97;3.00;;;27.90;73.00;;;;;;5044099;28;20045;-70
2021/08/15 09:07:36;;;;;;;6.20;3.03;;;27.80;73.60;;;;;;5032945;28;20041;-70
2021/08/15 09:10:05;;;;;;;5.07;2.75;;;27.90;76.50;;;;;;5038350;28;20045;-71
2021/08/15 09:12:39;;;;;;;3.80;3.33;;;28.50;73.80;;;;;;5051464;28;20514;-71
2021/08/15 09:15:10;;;;;;;5.70;2.38;;;27.80;72.90;;;;;;5051656;28;20041;-71
2021/08/15 09:17:38;;;;;;;5.32;3.33;;;27.80;73.10;;;;;;5051771;28;20052;-71
2021/08/15 09:20:06;;;;;;;7.15;2.63;;;27.50;74.00;;;;;;5051142;28;20053;-70
2021/08/15 09:22:35;;;;;;;3.00;2.10;;;27.10;74.00;;;;;;5051372;28;20041;-71
2021/08/15 09:25:04;;;;;;;4.97;2.75;;;27.10;73.90;;;;;;5052020;28;20585;-73
2021/08/15 09:27:32;;;;;;;3.63;3.33;;;27.30;73.00;;;;;;5051657;28;20114;-72
2021/08/15 09:30:18;;;;;;;4.03;2.63;;;28.00;73.40;;;;;;5050601;28;20501;-72
2021/08/15 09:32:49;;;;;;;4.45;2.30;;;29.00;70.50;;;;;;5051655;28;20041;-73
2021/08/15 09:35:21;;;;;;;3.65;2.30;;;29.20;67.70;;;;;;5051525;28;20045;-74
2021/08/15 09:37:55;;;;;;;4.97;2.45;;;29.00;67.70;;;;;;5051822;28;20057;-74
2021/08/15 09:40:25;;;;;;;4.32;2.58;;;28.50;67.70;;;;;;5050996;28;20053;-73
2021/08/15 09:42:52;;;;;;;3.50;1.65;;;28.90;68.20;;;;;;5051548;28;20485;-74
2021/08/15 09:45:37;;;;;;;3.30;1.90;;;29.30;66.90;;;;;;5051551;28;20472;-72
2021/08/15 09:48:17;;;;;;;4.28;2.45;;;30.40;63.70;;;;;;5051367;28;20102;-73
2021/08/15 09:51:01;;;;;;;5.33;2.10;;;30.70;61.70;;;;;;5051488;28;20408;-71
2021/08/15 09:53:27;;;;;;;4.07;2.30;;;30.00;61.70;;;;;;5051379;28;20045;-72
2021/08/15 09:55:55;;;;;;;2.63;2.25;;;29.30;63.80;;;;;;5051390;28;20511;-71
2021/08/15 09:58:22;;;;;;;3.83;2.05;;;29.60;61.80;;;;;;5050727;28;20048;-71
2021/08/15 10:00:50;;;;;;;4.70;2.30;;;29.30;62.10;;;;;;5051102;28;20505;-71
2021/08/15 10:03:17;;;;;;;2.88;1.58;;;28.60;62.70;;;;;;5051356;28;20080;-71
2021/08/15 10:05:44;;;;;;;2.65;2.20;;;28.90;63.90;;;;;;5051350;28;20099;-73
2021/08/15 10:08:11;;;;;;;1.98;1.77;;;28.50;63.10;;;;;;5051473;28;20045;-73
2021/08/15 10:10:39;;;;;;;4.85;2.42;;;27.60;66.30;;;;;;5050588;28;20041;-73
2021/08/15 10:13:06;;;;;;;5.40;2.08;;;28.10;67.20;;;;;;5051137;28;20482;-73
2021/08/15 10:15:33;;;;;;;3.95;1.88;;;28.30;66.80;;;;;;5051542;28;20413;-73
2021/08/15 10:18:05;;;;;;;4.40;2.72;;;27.90;66.70;;;;;;5051338;28;20064;-73
2021/08/15 10:20:32;;;;;;;3.28;2.15;;;27.70;67.10;;;;;;5050734;28;20563;-71
2021/08/15 10:23:06;;;;;;;3.50;2.42;;;28.00;66.90;;;;;;5051401;28;20041;-71
2021/08/15 10:25:34;;;;;;;3.95;2.80;;;29.10;65.40;;;;;;5051206;28;20049;-73
2021/08/15 10:28:01;;;;;;;3.45;2.25;;;30.10;61.80;;;;;;5051094;28;20045;-71
2021/08/15 10:30:47;;;;;;;3.13;2.13;;;31.20;59.40;;;;;;5050326;28;20044;-71
2021/08/15 10:33:20;;;;;;;3.40;1.73;;;30.80;56.30;;;;;;5050971;28;20041;-72
2021/08/15 10:36:19;;;;;;;4.00;2.00;;;30.00;58.40;;;;;;5054055;28;20049;-73
2021/08/15 10:38:47;;;;;;;3.20;1.90;;;30.00;57.50;;;;;;5054347;28;20049;-73
2021/08/15 10:41:14;;;;;;;5.20;2.65;;;30.30;57.40;;;;;;5054553;28;20102;-74
2021/08/15 10:44:08;;;;;;;3.65;2.50;;;29.70;58.00;;;;;;5054553;28;20048;-72
2021/08/15 10:46:36;;;;;;;5.07;2.97;;;29.80;58.50;;;;;;5056372;28;20041;-71
2021/08/15 10:49:06;;;;;;;4.00;2.25;;;30.90;59.20;;;;;;5054117;28;20128;-70
2021/08/15 10:51:41;;;;;;;3.85;3.03;;;30.10;56.80;;;;;;5054514;28;20133;-71
2021/08/15 10:54:09;;;;;;;4.25;2.45;;;30.60;57.70;;;;;;5054440;28;20398;-71
2021/08/15 10:56:55;;;;;;;5.32;2.70;;;31.80;56.40;;;;;;5053984;28;20045;-71
2021/08/15 10:59:33;;;;;;;4.65;2.15;;;32.60;53.70;;;;;;5053838;28;20052;-71
2021/08/15 11:02:09;;;;;;;3.33;2.58;;;33.30;54.30;;;;;;5054383;28;20051;-71
2021/08/15 11:04:39;;;;;;;3.28;2.42;;;33.30;51.90;;;;;;5054293;28;20041;-70
2021/08/15 11:07:06;;;;;;;4.57;2.78;;;32.00;53.20;;;;;;5053948;28;20048;-71
2021/08/15 11:09:54;;;;;;;6.45;3.08;;;31.00;54.70;;;;;;5053327;28;20045;-72
2021/08/15 11:12:21;;;;;;;4.75;2.63;;;31.60;55.00;;;;;;5053985;28;20091;-72
2021/08/15 11:14:56;;;;;;;4.03;2.35;;;30.50;54.80;;;;;;5053893;28;20045;-71
2021/08/15 11:17:24;;;;;;;4.35;2.55;;;29.80;57.50;;;;;;5054062;28;20394;-72
2021/08/15 11:19:52;;;;;;;7.85;3.28;;;28.20;58.80;;;;;;5053400;28;20150;-73
2021/08/15 11:22:28;;;;;;;4.22;2.40;;;28.30;59.40;;;;;;5058289;28;20132;-72
2021/08/15 11:25:01;;;;;;;3.85;2.33;;;29.30;59.90;;;;;;5054570;28;20057;-74
2021/08/15 11:27:33;;;;;;;3.75;2.80;;;29.90;59.60;;;;;;5054124;28;20513;-73
2021/08/15 11:30:08;;;;;;;5.57;3.60;;;30.20;57.80;;;;;;5053105;28;20448;-73
2021/08/15 11:32:35;;;;;;;4.72;3.60;;;30.00;59.10;;;;;;5053866;28;20045;-75
2021/08/15 11:35:06;;;;;;;4.80;2.72;;;29.90;58.30;;;;;;5053623;28;20501;-73
2021/08/15 11:37:33;;;;;;;;;;;29.10;58.00;;;;;;5053763;28;20048;-74
2021/08/15 11:40:14;;;;;;;4.88;3.83;;;28.90;59.70;;;;;;5052728;28;19966;-75
2021/08/15 11:42:42;;;;;;;5.25;3.90;;;29.30;60.70;;;;;;5055604;28;20067;-77
2021/08/15 11:45:10;;;;;;;5.10;2.20;;;30.70;59.40;;;;;;5053045;28;20551;-72
2021/08/15 11:47:38;;;;;;;6.13;4.18;;;30.90;56.70;;;;;;5053717;28;20045;-70
2021/08/15 11:50:16;;;;;;;4.65;2.55;;;31.20;55.40;;;;;;5052824;28;20045;-72
2021/08/15 11:52:42;;;;;;;5.13;3.13;;;30.80;56.70;;;;;;5053210;28;20452;-72
2021/08/15 11:55:24;;;;;;;5.50;3.00;;;30.70;55.80;;;;;;5053084;28;20099;-70
2021/08/15 11:57:52;;;;;;;4.50;3.45;;;30.90;56.30;;;;;;5053504;28;20048;-73
2021/08/15 12:00:26;;;;;;;5.95;3.10;;;31.40;55.60;;;;;;5052086;28;20497;-72
2021/08/15 12:03:04;;;;;;;5.72;2.90;;;32.80;53.90;;;;;;5053386;28;20496;-73
2021/08/15 12:05:34;;;;;;;5.50;3.35;;;32.50;51.90;;;;;;5052830;28;20049;-72
2021/08/15 12:08:06;;;;;;;6.20;3.42;;;32.00;53.60;;;;;;5053220;28;20053;-73
2021/08/15 12:10:38;;;;;;;4.32;2.90;;;32.10;53.90;;;;;;5052448;28;20136;-72
2021/08/15 12:13:27;;;;;;;6.25;3.33;;;32.70;52.70;;;;;;5053353;28;20535;-73
2021/08/15 12:16:07;;;;;;;5.13;2.90;;;32.70;53.40;;;;;;5052736;28;20040;-73
2021/08/15 12:18:37;;;;;;;5.90;2.87;;;33.00;52.90;;;;;;5052755;28;20059;-74
2021/08/15 12:21:22;;;;;;;4.28;3.28;;;32.80;51.70;;;;;;5052518;28;20052;-72
2021/08/15 12:26:55;;;;;;;3.95;2.63;;;29.60;54.70;;;;;;4991136;28;20050;-70
2021/08/15 12:29:23;;;;;;;3.47;2.65;;;28.70;58.10;;;;;;4990039;28;20053;-70
2021/08/15 12:32:06;;;;;;;5.18;3.35;;;29.00;57.80;;;;;;4990776;28;20050;-71
2021/08/15 12:34:34;;;;;;;5.72;3.13;;;30.10;56.90;;;;;;4991160;28;20093;-72
2021/08/15 12:37:10;;;;;;;4.40;2.78;;;30.10;56.50;;;;;;4990928;28;20069;-72
2021/08/15 12:39:41;;;;;;;8.65;7.65;;;29.80;56.60;;;;;;4990614;28;20051;-71
2021/08/15 12:42:14;;;;;;;7.40;4.00;;;30.10;57.60;;;;;;4991546;28;20054;-71
2021/08/15 12:44:50;;;;;;;5.13;3.53;;;30.50;57.00;;;;;;4991166;28;20050;-74
2021/08/15 12:47:25;;;;;;;8.07;4.20;;;29.90;57.70;;;;;;4991420;28;20069;-74
2021/08/15 12:49:53;;;;;;;5.65;3.47;;;29.80;56.80;;;;;;4989838;28;20097;-72
2021/08/15 12:52:23;;;;;;;6.25;3.20;;;29.40;58.10;;;;;;4990060;28;20046;-73
2021/08/15 12:55:12;;;;;;;6.30;4.78;;;28.70;58.00;;;;;;4990508;28;20054;-71